If you wish to contribute or participate in the discussions about articles you are invited to join SKYbrary as a registered user

 Actions

Buenos Aires/Aeroparque Jorge Newbery

From SKYbrary Wiki

SABE
Airport
ICAO: SABE – IATA: AEP
Summary
Name Buenos Aires/Aeroparque Jorge Newbery
Region South America and Caribbean
Territory Argentina AR.gif
Location Palermo, Buenos Aires
Serving Buenos Aires
Elevation 5.486 m
18 ft
18 ft5.486 m
Coordinates 34° 33' 28.69" S, 58° 24' 49.50" W
Runways
Designator Length Width Surface ROPS
13/31 2100 m6,889.764 ft
40 m131.234 ft
CON yes/yes


METAR
Observation SABE 171600Z 28008KT 230V330 CAVOK 22/M01 Q1011 NOSIG
Station Aeroparque Bs. As. Aerodrome
Date/Time 17 September 2019 16:00:00
Wind direction 280°
Wind speed 08 kts
Lowest cloud amount clouds and visibility OK
Temperature 22°C
Dew point
Humidity 21%
QNH 1011 hPa
Weather condition n/a

International airport serving the city of Buenos Aires.

Climatology

Humid “subtropical” climate (Köppen climate classification Cfa) - characterized by hot, humid summers and cool winters. Significant amounts of precipitation occur in all seasons in most areas. Winter rainfall (and sometimes snowfall) is associated with large storms that the westerlies steer from west to east. Most summer rainfall occurs during thunderstorms.

Maps

Terrain

Loading map...

Airport Layout

Loading map...


Accidents & Serious Incidents at or in vicinity of SABE

None on SKYbrary